Time;durP1;ratioP1;P1;durP2;ratioP2;P2;SDS_P1;SDS_P2;PMS_P1;PMS_P2;Temp;Humidity;BMP_temperature;BMP_pressure;BME280_temperature;BME280_humidity;BME280_pressure;Samples;Min_cycle;Max_cycle;Signal;HPM_P1;HPM_P2
2022/09/22 00:00:00;;;;;;;7.87;7.07;;;;;20.50;101267.00;;;;2081691;28;20229;-51
2022/09/22 00:01:00;;;;;;;7.33;6.53;;;;;20.50;101368.00;;;;2080836;28;20279;-57
2022/09/22 00:02:00;;;;;;;8.10;6.30;;;;;20.50;101374.00;;;;2082141;28;20221;-57
2022/09/22 00:03:01;;;;;;;8.80;7.60;;;;;20.50;101365.00;;;;2081540;28;20277;-51
2022/09/22 00:04:03;;;;;;;8.40;7.00;;;;;20.50;101368.00;;;;2081930;28;20222;-55
2022/09/22 00:05:03;;;;;;;6.90;6.30;;;;;20.50;101368.00;;;;2080386;28;20578;-52
2022/09/22 00:06:08;;;;;;;6.47;5.80;;;;;20.50;101367.00;;;;2082267;28;20230;-50
2022/09/22 00:07:08;;;;;;;7.57;6.30;;;;;20.50;101374.00;;;;2081933;28;20214;-51
2022/09/22 00:08:09;;;;;;;8.00;6.90;;;;;20.50;101369.00;;;;2080887;28;20233;-51
2022/09/22 00:09:11;;;;;;;8.53;6.90;;;;;20.50;101363.00;;;;2081972;28;20221;-52
2022/09/22 00:10:11;;;;;;;7.88;6.80;;;;;20.50;101364.00;;;;2081848;28;20221;-52
2022/09/22 00:11:16;;;;;;;7.33;6.40;;;;;20.50;101368.00;;;;2081861;28;20263;-51
2022/09/22 00:12:16;;;;;;;9.55;6.93;;;;;20.40;101364.00;;;;2081958;28;20209;-52
2022/09/22 00:13:16;;;;;;;7.20;6.50;;;;;20.40;101374.00;;;;2081896;28;20243;-51
2022/09/22 00:14:19;;;;;;;6.97;6.00;;;;;20.40;101367.00;;;;2081570;28;20205;-53
2022/09/22 00:15:19;;;;;;;6.45;5.82;;;;;20.40;101350.00;;;;2081247;28;20213;-52
2022/09/22 00:16:29;;;;;;;7.13;5.70;;;;;20.50;101364.00;;;;2082198;28;20219;-52
2022/09/22 00:17:30;;;;;;;7.18;5.90;;;;;20.40;101371.00;;;;2080550;28;20214;-53
2022/09/22 00:18:30;;;;;;;6.40;5.40;;;;;20.40;101365.00;;;;2081292;28;20218;-52
2022/09/22 00:19:32;;;;;;;6.30;5.63;;;;;20.40;101361.00;;;;2082223;28;20218;-51
2022/09/22 00:20:33;;;;;;;7.00;5.53;;;;;20.40;101369.00;;;;2082228;28;20260;-50
2022/09/22 00:21:34;;;;;;;7.17;5.73;;;;;20.40;101363.00;;;;2081581;28;20228;-57
2022/09/22 00:22:34;;;;;;;7.45;6.00;;;;;20.40;101365.00;;;;2081741;28;20232;-55
2022/09/22 00:23:35;;;;;;;6.00;5.50;;;;;20.40;101358.00;;;;2080744;28;20220;-54
2022/09/22 00:24:35;;;;;;;5.73;5.23;;;;;20.40;101369.00;;;;2082082;28;20209;-53
2022/09/22 00:25:39;;;;;;;6.37;5.70;;;;;20.40;101361.00;;;;2076660;28;20449;-52
2022/09/22 00:26:40;;;;;;;5.70;5.10;;;;;20.40;101362.00;;;;2073824;28;20224;-51
2022/09/22 00:27:40;;;;;;;5.87;5.27;;;;;20.40;101380.00;;;;2072547;28;20218;-52
2022/09/22 00:28:41;;;;;;;6.67;5.00;;;;;20.40;101363.00;;;;2073432;28;20518;-51
2022/09/22 00:29:42;;;;;;;5.53;4.90;;;;;20.40;101368.00;;;;2073531;28;20217;-51
2022/09/22 00:30:42;;;;;;;6.37;5.50;;;;;20.40;101364.00;;;;2073609;28;20464;-52
2022/09/22 00:31:43;;;;;;;7.17;5.57;;;;;20.40;101361.00;;;;2072802;28;20462;-51
2022/09/22 00:32:43;;;;;;;5.67;5.10;;;;;20.40;101364.00;;;;2065358;28;20285;-50
2022/09/22 00:33:45;;;;;;;5.00;4.50;;;;;20.40;101357.00;;;;2073112;28;20236;-51
2022/09/22 00:34:45;;;;;;;5.55;4.97;;;;;20.40;101357.00;;;;2073586;28;20214;-53
2022/09/22 00:35:55;;;;;;;6.40;4.97;;;;;20.40;101358.00;;;;2074015;28;20226;-50
2022/09/22 00:36:56;;;;;;;6.78;5.38;;;;;20.40;101351.00;;;;2074038;28;20685;-50
2022/09/22 00:37:56;;;;;;;6.83;4.77;;;;;20.40;101362.00;;;;2072980;28;20214;-53
2022/09/22 00:38:57;;;;;;;5.90;4.60;;;;;20.40;101311.00;;;;2073491;28;20229;-51
2022/09/22 00:39:57;;;;;;;5.00;4.50;;;;;20.30;101356.00;;;;2074117;28;20226;-53
2022/09/22 00:41:00;;;;;;;5.30;4.10;;;;;20.30;101345.00;;;;2074021;28;20220;-51
2022/09/22 00:42:00;;;;;;;4.70;4.30;;;;;20.30;101351.00;;;;2073115;28;20464;-51
2022/09/22 00:43:18;;;;;;;4.80;4.30;;;;;20.30;101306.00;;;;2073232;28;20218;-51
2022/09/22 00:44:37;;;;;;;4.50;4.05;;;;;20.30;101358.00;;;;2073568;28;20221;-51
2022/09/22 00:45:38;;;;;;;5.63;4.20;;;;;20.30;101360.00;;;;2076451;28;20301;-53
2022/09/22 00:46:38;;;;;;;5.50;4.63;;;;;20.30;101370.00;;;;2081133;28;20232;-51
2022/09/22 00:47:40;;;;;;;5.17;4.30;;;;;20.30;101362.00;;;;2078314;28;20222;-51
2022/09/22 00:48:47;;;;;;;5.72;4.50;;;;;20.30;101350.00;;;;2072484;28;20464;-51
2022/09/22 00:50:10;;;;;;;5.13;4.30;;;;;20.30;101388.00;;;;2073149;28;20229;-52
2022/09/22 00:51:12;;;;;;;4.78;4.35;;;;;20.30;101361.00;;;;2072370;28;20233;-51
2022/09/22 00:52:16;;;;;;;4.88;4.38;;;;;20.30;101344.00;;;;2067553;28;20253;-51
2022/09/22 00:53:16;;;;;;;4.72;4.30;;;;;20.30;101335.00;;;;2073265;28;20233;-52
2022/09/22 00:54:16;;;;;;;4.30;3.83;;;;;20.30;101343.00;;;;2065022;28;20229;-51
2022/09/22 00:55:45;;;;;;;4.90;4.40;;;;;20.30;101350.00;;;;2064971;28;20211;-50
2022/09/22 00:57:06;;;;;;;5.80;4.03;;;;;20.30;101356.00;;;;2083516;28;20217;-51
2022/09/22 00:58:08;;;;;;;5.18;4.00;;;;;18.40;101340.00;;;;2080321;28;20869;-50
2022/09/22 00:59:11;;;;;;;4.55;3.60;;;;;20.30;101327.00;;;;2064916;28;20630;-51
2022/09/22 01:00:12;;;;;;;4.20;3.80;;;;;20.30;101298.00;;;;2073615;28;20322;-51
2022/09/22 01:01:13;;;;;;;4.03;3.63;;;;;20.30;101330.00;;;;2078761;28;20264;-52
2022/09/22 01:02:14;;;;;;;3.97;3.47;;;;;20.20;101343.00;;;;2064943;28;20241;-52
2022/09/22 01:03:17;;;;;;;4.10;3.70;;;;;20.20;101329.00;;;;2072383;28;20264;-51
2022/09/22 01:04:18;;;;;;;4.40;3.55;;;;;20.20;101298.00;;;;2081249;28;20280;-51
2022/09/22 01:05:18;;;;;;;4.40;3.90;;;;;20.20;101345.00;;;;2072897;28;20206;-52
2022/09/22 01:06:21;;;;;;;5.20;4.47;;;;;20.20;101322.00;;;;2072983;28;20238;-52
2022/09/22 01:07:22;;;;;;;4.93;3.78;;;;;20.30;101341.00;;;;2072174;28;20236;-52
2022/09/22 01:08:23;;;;;;;3.83;3.53;;;;;20.30;101342.00;;;;2080323;28;20209;-53
2022/09/22 01:09:23;;;;;;;4.60;3.73;;;;;20.20;101332.00;;;;2073252;28;20210;-51
2022/09/22 01:10:26;;;;;;;6.13;4.07;;;;;20.30;101336.00;;;;2080870;28;20354;-51
2022/09/22 01:11:28;;;;;;;4.30;3.90;;;;;20.20;101331.00;;;;2081737;28;20279;-52
2022/09/22 01:12:28;;;;;;;3.92;3.63;;;;;20.20;101344.00;;;;2072838;28;20202;-51
2022/09/22 01:13:53;;;;;;;4.87;4.20;;;;;20.20;101254.00;;;;2073508;28;20226;-52
2022/09/22 01:15:10;;;;;;;4.63;3.80;;;;;20.20;101338.00;;;;2081280;28;20217;-51
2022/09/22 01:16:19;;;;;;;4.18;3.78;;;;;20.20;101331.00;;;;2080668;28;20400;-52
2022/09/22 01:17:29;;;;;;;4.30;3.80;;;;;20.20;101328.00;;;;2079887;28;20229;-51
2022/09/22 01:18:34;;;;;;;3.50;3.20;;;;;20.20;101326.00;;;;2081676;28;20741;-52
2022/09/22 01:20:02;;;;;;;3.65;3.35;;;;;20.20;101331.00;;;;2081407;28;20742;-51
2022/09/22 01:21:20;;;;;;;4.53;4.03;;;;;20.20;101328.00;;;;2081875;28;20585;-50
2022/09/22 01:22:46;;;;;;;4.07;3.67;;;;;20.10;101283.00;;;;2081476;28;21117;-51
2022/09/22 01:24:01;;;;;;;4.22;3.25;;;;;20.20;101324.00;;;;2077531;28;20225;-50
2022/09/22 01:25:21;;;;;;;3.70;3.40;;;;;20.20;101327.00;;;;2081230;28;20209;-51
2022/09/22 01:26:49;;;;;;;3.47;3.13;;;;;20.20;101325.00;;;;2072200;28;20217;-52
2022/09/22 01:27:58;;;;;;;4.35;3.80;;;;;20.20;101315.00;;;;2077227;28;20228;-52
2022/09/22 01:29:33;;;;;;;3.92;3.20;;;;;20.20;101318.00;;;;2080530;28;20273;-52
2022/09/22 01:30:40;;;;;;;3.58;3.28;;;;;20.20;101318.00;;;;2078259;28;20206;-51
2022/09/22 01:31:51;;;;;;;3.92;3.22;;;;;20.20;101313.00;;;;2077622;28;20232;-52
2022/09/22 01:33:15;;;;;;;3.67;3.25;;;;;20.20;101314.00;;;;2070856;28;20309;-52
2022/09/22 01:34:29;;;;;;;3.35;3.08;;;;;20.20;101319.00;;;;2072420;28;20213;-53
2022/09/22 01:35:55;;;;;;;3.15;2.85;;;;;20.20;101316.00;;;;2069864;28;20213;-52
2022/09/22 01:37:02;;;;;;;3.30;3.00;;;;;20.20;101306.00;;;;2060948;28;20223;-52
2022/09/22 01:38:09;;;;;;;3.65;3.35;;;;;20.20;101306.00;;;;2065504;28;20579;-52
2022/09/22 01:39:24;;;;;;;5.93;3.20;;;;;20.20;101312.00;;;;2069541;28;20218;-52
2022/09/22 01:40:57;;;;;;;3.90;3.50;;;;;20.10;101316.00;;;;2075301;28;20210;-52
2022/09/22 01:42:10;;;;;;;3.95;3.55;;;;;20.10;101313.00;;;;2082100;28;20297;-52
2022/09/22 01:43:31;;;;;;;3.20;2.90;;;;;20.10;101312.00;;;;2069655;28;20229;-52
2022/09/22 01:44:48;;;;;;;4.10;3.20;;;;;20.10;101313.00;;;;2078051;28;20236;-51
2022/09/22 01:45:49;;;;;;;3.75;3.45;;;;;20.10;101308.00;;;;2078724;28;20736;-52
2022/09/22 01:46:53;;;;;;;4.60;3.20;;;;;20.10;101313.00;;;;2079223;28;20752;-52
2022/09/22 01:47:56;;;;;;;4.03;3.22;;;;;20.10;101302.00;;;;2078370;28;20222;-52
2022/09/22 01:48:59;;;;;;;5.15;3.10;;;;;20.10;101164.00;;;;2071318;28;20694;-52
2022/09/22 01:50:03;;;;;;;3.30;2.83;;;;;20.10;101290.00;;;;2071001;28;20288;-52
2022/09/22 01:51:07;;;;;;;3.17;2.65;;;;;20.10;101307.00;;;;2056361;28;20215;-52
2022/09/22 01:52:19;;;;;;;3.05;2.65;;;;;20.10;101302.00;;;;2071844;28;20272;-54
2022/09/22 01:53:22;;;;;;;3.67;3.33;;;;;20.10;101274.00;;;;2072777;28;20210;-52
2022/09/22 01:54:36;;;;;;;3.25;2.95;;;;;20.10;101299.00;;;;2071433;28;20213;-52
2022/09/22 01:55:37;;;;;;;4.07;3.10;;;;;20.10;101306.00;;;;2070815;28;20210;-52
2022/09/22 01:56:38;;;;;;;3.00;2.70;;;;;20.10;101302.00;;;;2063548;28;20225;-52
2022/09/22 01:57:41;;;;;;;4.30;3.67;;;;;20.10;101294.00;;;;2066872;28;20297;-52
2022/09/22 01:58:45;;;;;;;3.03;2.72;;;;;20.10;101295.00;;;;2071138;28;20229;-52
2022/09/22 01:59:49;;;;;;;3.80;2.88;;;;;20.10;101297.00;;;;2055366;28;20220;-52
2022/09/22 02:01:09;;;;;;;6.15;2.53;;;;;20.10;101305.00;;;;2063690;28;20234;-52
2022/09/22 02:02:16;;;;;;;3.47;3.00;;;;;20.00;101298.00;;;;2071509;28;20221;-51
2022/09/22 02:03:24;;;;;;;5.22;3.05;;;;;20.10;101303.00;;;;2058128;28;20211;-51
2022/09/22 02:04:36;;;;;;;3.33;2.67;;;;;20.10;101297.00;;;;2068720;28;20694;-51
2022/09/22 02:05:42;;;;;;;5.18;3.17;;;;;20.10;101289.00;;;;2066881;28;20211;-51
2022/09/22 02:06:46;;;;;;;3.85;2.60;;;;;20.00;101297.00;;;;2055047;28;20278;-51
2022/09/22 02:07:49;;;;;;;3.72;3.00;;;;;20.00;101294.00;;;;2063789;28;20330;-51
2022/09/22 02:08:55;;;;;;;3.60;3.00;;;;;20.10;101292.00;;;;2079392;28;20213;-52
2022/09/22 02:09:57;;;;;;;3.45;3.15;;;;;20.10;101303.00;;;;2064679;28;20223;-52
2022/09/22 02:11:00;;;;;;;2.92;2.72;;;;;20.00;101298.00;;;;2069771;28;20241;-51
2022/09/22 02:12:00;;;;;;;3.63;3.30;;;;;20.00;101276.00;;;;2074431;28;20216;-51
2022/09/22 02:13:01;;;;;;;2.80;2.50;;;;;20.00;101295.00;;;;2072243;28;21082;-51
2022/09/22 02:14:01;;;;;;;3.20;2.67;;;;;20.00;101296.00;;;;2071133;28;20202;-51
2022/09/22 02:15:58;;;;;;;3.43;3.13;;;;;20.00;101296.00;;;;2071092;28;20214;-51
2022/09/22 02:16:26;;;;;;;2.97;2.70;;;;;20.00;101297.00;;;;2074145;28;20241;-51
2022/09/22 02:17:26;;;;;;;2.90;2.60;;;;;20.00;101292.00;;;;2079431;28;20242;-51
2022/09/22 02:18:38;;;;;;;3.33;2.80;;;;;20.00;101294.00;;;;2070968;28;20216;-51
2022/09/22 02:19:39;;;;;;;2.90;2.55;;;;;20.00;101294.00;;;;2071101;28;20214;-51
2022/09/22 02:20:39;;;;;;;2.92;2.55;;;;;20.00;101296.00;;;;2079446;28;20445;-51
2022/09/22 02:21:41;;;;;;;3.37;2.80;;;;;20.00;101270.00;;;;2075546;28;20214;-51
2022/09/22 02:22:42;;;;;;;3.03;2.72;;;;;20.00;101267.00;;;;2073007;28;20229;-51
2022/09/22 02:23:43;;;;;;;3.30;2.60;;;;;20.00;101267.00;;;;2065911;28;20234;-51
2022/09/22 02:24:44;;;;;;;3.03;2.73;;;;;20.00;101287.00;;;;2067342;28;20215;-51
2022/09/22 02:25:44;;;;;;;3.95;2.70;;;;;20.00;101288.00;;;;2074576;28;20449;-51
2022/09/22 02:26:45;;;;;;;3.93;2.50;;;;;20.00;101289.00;;;;2074562;28;20956;-51
2022/09/22 02:27:46;;;;;;;3.05;2.70;;;;;20.00;101286.00;;;;2077221;28;20236;-51
2022/09/22 02:28:46;;;;;;;3.30;2.33;;;;;20.00;101269.00;;;;2072826;28;20242;-51
2022/09/22 02:29:49;;;;;;;2.60;2.40;;;;;20.00;101286.00;;;;2064063;28;20210;-51
2022/09/22 02:30:51;;;;;;;2.85;2.53;;;;;20.00;101303.00;;;;2071689;28;20221;-51
2022/09/22 02:31:51;;;;;;;3.08;2.50;;;;;20.00;101282.00;;;;2059926;28;20226;-51
2022/09/22 02:32:52;;;;;;;2.97;2.67;;;;;20.00;101287.00;;;;2070178;28;20590;-51
2022/09/22 02:33:52;;;;;;;3.40;2.60;;;;;20.00;101260.00;;;;2061743;28;20638;-51
2022/09/22 02:34:52;;;;;;;3.10;2.80;;;;;20.00;101300.00;;;;2076810;28;20583;-51
2022/09/22 02:36:01;;;;;;;4.33;2.40;;;;;20.00;101286.00;;;;2075704;28;20216;-55
2022/09/22 02:37:18;;;;;;;2.88;2.58;;;;;20.00;101274.00;;;;2076099;28;20775;-51
2022/09/22 02:38:19;;;;;;;2.85;2.60;;;;;20.00;101264.00;;;;2071800;28;20237;-51
2022/09/22 02:39:22;;;;;;;2.80;2.60;;;;;20.00;101297.00;;;;2069300;28;20210;-51
2022/09/22 02:40:52;;;;;;;3.25;2.90;;;;;20.00;101263.00;;;;2063385;28;20221;-51
2022/09/22 02:41:55;;;;;;;2.80;2.25;;;;;20.00;101281.00;;;;2078763;28;20210;-51
2022/09/22 02:43:28;;;;;;;3.33;2.70;;;;;20.00;101284.00;;;;2070811;28;20206;-52
2022/09/22 02:44:48;;;;;;;3.60;2.67;;;;;19.90;101279.00;;;;2070079;28;20312;-52
2022/09/22 02:46:18;;;;;;;2.60;2.40;;;;;19.90;101283.00;;;;2072056;28;20579;-51
2022/09/22 02:47:26;;;;;;;2.60;2.20;;;;;19.90;101281.00;;;;2074942;28;20249;-51
2022/09/22 02:48:36;;;;;;;2.70;2.50;;;;;19.90;101284.00;;;;2062503;28;20211;-52
2022/09/22 02:49:36;;;;;;;2.40;2.20;;;;;19.90;101277.00;;;;2061630;28;20665;-51
2022/09/22 02:50:36;;;;;;;2.30;2.10;;;;;19.90;101278.00;;;;2062670;28;20214;-51
2022/09/22 02:51:37;;;;;;;3.03;2.50;;;;;19.90;101302.00;;;;2077859;28;20265;-51
2022/09/22 02:52:37;;;;;;;2.57;2.37;;;;;19.90;101269.00;;;;2071087;28;20240;-52
2022/09/22 02:53:37;;;;;;;2.83;2.37;;;;;19.90;101267.00;;;;2062600;28;20695;-51
2022/09/22 02:54:38;;;;;;;2.60;2.40;;;;;19.90;101277.00;;;;2070863;28;20219;-51
2022/09/22 02:55:38;;;;;;;2.43;2.23;;;;;19.90;101273.00;;;;2075272;28;20226;-51
2022/09/22 02:56:40;;;;;;;4.30;2.77;;;;;19.90;101275.00;;;;2074652;28;20256;-51
2022/09/22 02:57:40;;;;;;;3.50;2.40;;;;;19.90;101269.00;;;;2066790;28;20218;-51
2022/09/22 02:58:40;;;;;;;2.50;2.30;;;;;19.90;101267.00;;;;2073904;28;20222;-51
2022/09/22 02:59:41;;;;;;;2.47;2.10;;;;;19.90;101276.00;;;;2075302;28;20210;-51
2022/09/22 03:00:42;;;;;;;2.90;2.60;;;;;20.00;101266.00;;;;2075225;28;20269;-51
2022/09/22 03:01:42;;;;;;;3.50;2.28;;;;;19.90;101274.00;;;;2080000;28;20324;-51
2022/09/22 03:02:42;;;;;;;4.60;2.50;;;;;20.00;101273.00;;;;2076174;28;20210;-51
2022/09/22 03:03:43;;;;;;;2.63;2.33;;;;;19.90;101269.00;;;;2079533;28;21030;-52
2022/09/22 03:04:43;;;;;;;4.57;2.83;;;;;19.90;101270.00;;;;2071782;28;20726;-51
2022/09/22 03:05:43;;;;;;;2.93;2.47;;;;;19.90;101261.00;;;;2078399;28;20304;-51
2022/09/22 03:06:44;;;;;;;3.00;2.70;;;;;19.90;101261.00;;;;2071505;28;20301;-51
2022/09/22 03:07:44;;;;;;;3.20;2.20;;;;;19.90;101261.00;;;;2072757;28;20215;-52
2022/09/22 03:08:44;;;;;;;2.63;2.40;;;;;19.90;101241.00;;;;2074999;28;20211;-51
2022/09/22 03:09:45;;;;;;;3.10;2.60;;;;;19.90;101265.00;;;;2074960;28;20229;-53
2022/09/22 03:10:45;;;;;;;2.83;2.63;;;;;19.90;101264.00;;;;2074839;28;20249;-52
2022/09/22 03:11:46;;;;;;;2.70;2.33;;;;;19.90;101261.00;;;;2074689;28;20238;-52
2022/09/22 03:12:46;;;;;;;3.73;2.37;;;;;19.80;101200.00;;;;2074763;28;20237;-51
2022/09/22 03:13:46;;;;;;;3.47;2.73;;;;;19.90;101264.00;;;;2074499;28;20206;-51
2022/09/22 03:14:48;;;;;;;3.00;2.40;;;;;19.90;101257.00;;;;2074704;28;20234;-51
2022/09/22 03:15:49;;;;;;;4.05;2.60;;;;;19.90;101288.00;;;;2074887;28;20238;-51
2022/09/22 03:16:50;;;;;;;2.72;2.40;;;;;19.90;101225.00;;;;2075151;28;20732;-53
2022/09/22 03:17:50;;;;;;;2.57;2.37;;;;;19.80;101258.00;;;;2073741;28;20218;-51
2022/09/22 03:18:50;;;;;;;3.10;2.60;;;;;19.90;101262.00;;;;2074414;28;20210;-51
2022/09/22 03:19:51;;;;;;;2.97;2.50;;;;;19.80;101263.00;;;;2073969;28;20236;-50
2022/09/22 03:20:51;;;;;;;4.10;2.40;;;;;19.90;101222.00;;;;2074430;28;20229;-51
2022/09/22 03:21:51;;;;;;;3.57;2.80;;;;;19.90;101260.00;;;;2074529;28;20233;-51
2022/09/22 03:22:52;;;;;;;2.53;2.33;;;;;19.90;101260.00;;;;2074286;28;20221;-50
2022/09/22 03:23:52;;;;;;;3.87;2.47;;;;;19.90;101260.00;;;;2074510;28;20245;-52
2022/09/22 03:24:52;;;;;;;2.80;2.50;;;;;19.80;101206.00;;;;2073619;28;20243;-51
2022/09/22 03:25:53;;;;;;;3.30;2.23;;;;;19.90;101255.00;;;;2074406;28;20221;-51
2022/09/22 03:26:53;;;;;;;3.40;2.50;;;;;19.90;101255.00;;;;2074127;28;20214;-51
2022/09/22 03:27:53;;;;;;;2.73;2.27;;;;;19.80;101255.00;;;;2073380;28;20222;-51
2022/09/22 03:28:54;;;;;;;2.80;2.10;;;;;19.80;101254.00;;;;2073788;28;20244;-52
2022/09/22 03:29:54;;;;;;;3.10;2.20;;;;;19.80;101252.00;;;;2074062;28;20210;-52
2022/09/22 03:30:54;;;;;;;2.60;2.40;;;;;19.80;101258.00;;;;2074536;28;20218;-51
2022/09/22 03:31:55;;;;;;;3.00;2.60;;;;;19.80;101253.00;;;;2073767;28;20598;-52
2022/09/22 03:32:55;;;;;;;2.70;2.50;;;;;19.80;101244.00;;;;2073966;28;20225;-51
2022/09/22 03:33:56;;;;;;;3.07;2.20;;;;;19.80;101257.00;;;;2073185;28;20568;-52
2022/09/22 03:34:56;;;;;;;2.53;2.33;;;;;19.80;101257.00;;;;2080423;28;20244;-51
2022/09/22 03:35:57;;;;;;;3.10;2.50;;;;;19.80;101257.00;;;;2082186;28;20308;-53
2022/09/22 03:36:57;;;;;;;5.40;2.50;;;;;19.80;101253.00;;;;2082123;28;20213;-52
2022/09/22 03:37:57;;;;;;;2.30;2.10;;;;;19.90;101276.00;;;;2081498;28;20223;-52
2022/09/22 03:38:58;;;;;;;2.43;2.20;;;;;19.80;101256.00;;;;2082096;28;20674;-52
2022/09/22 03:39:59;;;;;;;3.03;2.17;;;;;19.90;101250.00;;;;2082014;28;20210;-52
2022/09/22 03:41:00;;;;;;;2.40;2.20;;;;;19.80;101202.00;;;;2082161;28;20945;-51
2022/09/22 03:42:00;;;;;;;2.50;2.30;;;;;19.80;101256.00;;;;2081848;28;20217;-52
2022/09/22 03:43:00;;;;;;;2.60;2.40;;;;;19.90;101252.00;;;;2080570;28;20213;-50
2022/09/22 03:44:01;;;;;;;2.40;2.20;;;;;19.80;101252.00;;;;2081786;28;20233;-51
2022/09/22 03:45:03;;;;;;;2.42;2.22;;;;;19.80;101116.00;;;;2082481;28;20228;-52
2022/09/22 03:46:03;;;;;;;2.88;2.42;;;;;19.80;101225.00;;;;2081949;28;20216;-55
2022/09/22 03:47:03;;;;;;;5.10;2.50;;;;;19.80;101244.00;;;;2082019;28;20236;-54
2022/09/22 03:48:04;;;;;;;5.17;2.40;;;;;19.80;101248.00;;;;2077068;28;20264;-54
2022/09/22 03:49:04;;;;;;;2.90;2.40;;;;;19.80;101244.00;;;;2073444;28;20219;-53
2022/09/22 03:50:05;;;;;;;2.50;2.30;;;;;19.80;101244.00;;;;2073645;28;20248;-52
2022/09/22 03:51:06;;;;;;;2.47;2.27;;;;;19.80;101240.00;;;;2073707;28;20206;-53
2022/09/22 03:52:06;;;;;;;2.60;2.27;;;;;19.80;101241.00;;;;2073797;28;20685;-52
2022/09/22 03:53:06;;;;;;;2.60;2.30;;;;;19.80;101243.00;;;;2073913;28;20209;-52
2022/09/22 03:54:07;;;;;;;2.47;2.27;;;;;19.80;101249.00;;;;2073859;28;20658;-52
2022/09/22 03:55:08;;;;;;;2.77;2.57;;;;;19.80;101242.00;;;;2073709;28;20220;-52
2022/09/22 03:56:10;;;;;;;2.70;2.33;;;;;19.80;101243.00;;;;2074106;28;20229;-52
2022/09/22 03:57:10;;;;;;;3.05;2.55;;;;;19.80;101237.00;;;;2073912;28;21071;-52
2022/09/22 03:58:11;;;;;;;2.60;2.40;;;;;19.80;101246.00;;;;2073451;28;20210;-49
2022/09/22 03:59:11;;;;;;;2.47;2.27;;;;;19.80;101247.00;;;;2074082;28;20714;-52
2022/09/22 04:00:13;;;;;;;3.00;2.63;;;;;19.80;101187.00;;;;2073249;28;20218;-51
2022/09/22 04:01:13;;;;;;;2.95;2.33;;;;;19.80;101249.00;;;;2073430;28;20221;-50
2022/09/22 04:02:13;;;;;;;2.73;2.23;;;;;19.80;101242.00;;;;2073363;28;20233;-51
2022/09/22 04:03:14;;;;;;;2.80;2.53;;;;;19.80;101242.00;;;;2073370;28;20213;-52
2022/09/22 04:04:14;;;;;;;2.70;2.30;;;;;19.80;101243.00;;;;2073507;28;20205;-52
2022/09/22 04:05:14;;;;;;;3.20;2.10;;;;;19.80;101207.00;;;;2073732;28;20645;-50
2022/09/22 04:06:15;;;;;;;2.97;2.40;;;;;19.80;101233.00;;;;2073117;28;20205;-52
2022/09/22 04:07:15;;;;;;;4.00;2.60;;;;;19.80;101238.00;;;;2072765;28;20763;-50
2022/09/22 04:08:16;;;;;;;3.07;2.40;;;;;19.80;101233.00;;;;2073277;28;20209;-51
2022/09/22 04:09:17;;;;;;;2.90;2.47;;;;;19.80;101224.00;;;;2073814;28;20206;-53
2022/09/22 04:10:17;;;;;;;2.53;2.20;;;;;19.80;101236.00;;;;2073014;28;20446;-50
2022/09/22 04:11:17;;;;;;;4.37;2.20;;;;;19.80;101181.00;;;;2073333;28;20496;-51
2022/09/22 04:12:18;;;;;;;3.27;2.57;;;;;19.80;101245.00;;;;2081241;28;20202;-53
2022/09/22 04:13:18;;;;;;;2.40;2.10;;;;;19.80;101234.00;;;;2073574;28;20218;-52
2022/09/22 04:14:19;;;;;;;2.90;2.10;;;;;19.70;101222.00;;;;2072914;28;20221;-51
2022/09/22 04:15:19;;;;;;;2.93;2.30;;;;;19.80;101197.00;;;;2072685;28;20296;-52
2022/09/22 04:16:19;;;;;;;2.43;2.23;;;;;19.80;101216.00;;;;2072598;28;20218;-53
2022/09/22 04:17:20;;;;;;;2.60;2.30;;;;;19.70;101229.00;;;;2072394;28;20229;-50
2022/09/22 04:18:20;;;;;;;2.50;2.20;;;;;19.70;101224.00;;;;2073300;28;20285;-51
2022/09/22 04:19:21;;;;;;;2.93;2.20;;;;;19.70;101225.00;;;;2073272;28;20221;-51
2022/09/22 04:20:21;;;;;;;2.47;2.27;;;;;19.70;101243.00;;;;2072940;28;20453;-50
2022/09/22 04:21:22;;;;;;;2.40;2.13;;;;;19.70;101195.00;;;;2073213;28;20593;-50
2022/09/22 04:22:22;;;;;;;2.47;2.27;;;;;19.70;101223.00;;;;2073423;28;20267;-50
2022/09/22 04:23:23;;;;;;;2.63;2.20;;;;;19.70;101223.00;;;;2073544;28;20225;-50
2022/09/22 04:24:23;;;;;;;2.70;2.40;;;;;19.70;101146.00;;;;2073306;28;20210;-52
2022/09/22 04:25:24;;;;;;;1.93;1.80;;;;;19.70;101238.00;;;;2073388;28;20207;-53
2022/09/22 04:26:24;;;;;;;2.40;2.20;;;;;19.70;101228.00;;;;2073194;28;20269;-51
2022/09/22 04:27:25;;;;;;;3.20;2.40;;;;;19.70;101225.00;;;;2072154;28;20268;-51
2022/09/22 04:28:25;;;;;;;2.70;2.10;;;;;19.70;101225.00;;;;2073228;28;20214;-52
2022/09/22 04:29:25;;;;;;;3.03;2.30;;;;;19.70;101227.00;;;;2081016;28;20205;-51
2022/09/22 04:30:26;;;;;;;2.90;2.10;;;;;19.70;101218.00;;;;2081490;28;20228;-52
2022/09/22 04:31:26;;;;;;;2.20;2.00;;;;;19.70;101228.00;;;;2081421;28;20209;-52
2022/09/22 04:32:26;;;;;;;3.10;2.40;;;;;19.70;101207.00;;;;2081048;28;20225;-52
2022/09/22 04:33:27;;;;;;;2.43;1.90;;;;;19.70;101176.00;;;;2081261;28;20205;-50
2022/09/22 04:34:27;;;;;;;2.40;2.20;;;;;19.70;101226.00;;;;2080932;28;20213;-52
2022/09/22 04:35:27;;;;;;;2.60;2.40;;;;;19.70;101223.00;;;;2081321;28;20280;-51
2022/09/22 04:36:28;;;;;;;2.73;2.40;;;;;19.70;101225.00;;;;2081544;28;20297;-52
2022/09/22 04:37:28;;;;;;;2.90;2.40;;;;;19.70;101205.00;;;;2080323;28;20220;-52
2022/09/22 04:38:28;;;;;;;2.33;2.13;;;;;19.70;101218.00;;;;2080852;28;20213;-52
2022/09/22 04:39:29;;;;;;;2.50;1.90;;;;;19.70;101224.00;;;;2080837;28;20255;-52
2022/09/22 04:40:29;;;;;;;3.17;2.07;;;;;19.70;101237.00;;;;2081570;28;20214;-51
2022/09/22 04:41:29;;;;;;;2.97;2.23;;;;;19.70;101217.00;;;;2080739;28;20248;-51
2022/09/22 04:42:30;;;;;;;3.37;2.00;;;;;19.70;101231.00;;;;2080760;28;20262;-51
2022/09/22 04:43:30;;;;;;;3.40;2.33;;;;;19.70;101253.00;;;;2081492;28;20216;-52
2022/09/22 04:44:30;;;;;;;2.67;2.20;;;;;19.70;101195.00;;;;2079215;28;20617;-52
2022/09/22 04:45:31;;;;;;;2.37;2.17;;;;;19.70;101166.00;;;;2081659;28;20737;-52
2022/09/22 04:46:31;;;;;;;2.10;1.70;;;;;19.70;101191.00;;;;2081378;28;21396;-52
2022/09/22 04:47:32;;;;;;;3.30;2.13;;;;;19.70;101217.00;;;;2080686;28;20677;-50
2022/09/22 04:48:32;;;;;;;3.70;2.27;;;;;19.70;101223.00;;;;2081552;28;20232;-51
2022/09/22 04:49:33;;;;;;;3.87;2.27;;;;;19.70;101222.00;;;;2081155;28;20223;-52
2022/09/22 04:50:33;;;;;;;3.43;2.03;;;;;19.70;101221.00;;;;2081273;28;20223;-51
2022/09/22 04:51:33;;;;;;;2.50;2.23;;;;;19.70;101226.00;;;;2081143;28;20224;-51
2022/09/22 04:52:33;;;;;;;2.20;1.97;;;;;19.70;101198.00;;;;2081248;28;20221;-51
2022/09/22 04:53:34;;;;;;;2.50;2.23;;;;;19.70;101222.00;;;;2081160;28;20312;-51
2022/09/22 04:54:34;;;;;;;2.43;2.10;;;;;19.70;101231.00;;;;2081079;28;20227;-52
2022/09/22 04:55:35;;;;;;;2.40;2.00;;;;;19.70;101165.00;;;;2081076;28;20217;-51
2022/09/22 04:56:35;;;;;;;2.83;2.47;;;;;19.70;101241.00;;;;2081287;28;20213;-52
2022/09/22 04:57:36;;;;;;;3.30;2.07;;;;;19.70;101223.00;;;;2080261;28;20245;-52
2022/09/22 04:58:36;;;;;;;2.80;2.23;;;;;19.70;101229.00;;;;2081714;28;20221;-51
2022/09/22 04:59:36;;;;;;;2.43;2.23;;;;;19.70;101236.00;;;;2080998;28;20214;-51
2022/09/22 05:00:37;;;;;;;3.00;2.33;;;;;19.70;101239.00;;;;2080999;28;20217;-52
2022/09/22 05:01:37;;;;;;;2.67;2.23;;;;;19.70;101225.00;;;;2081173;28;20251;-53
2022/09/22 05:02:38;;;;;;;2.40;2.20;;;;;19.70;101235.00;;;;2081273;28;20666;-53
2022/09/22 05:03:38;;;;;;;2.40;2.10;;;;;19.70;101231.00;;;;2081195;28;20241;-53
2022/09/22 05:04:38;;;;;;;2.57;2.23;;;;;19.70;101229.00;;;;2081399;28;20213;-51
2022/09/22 05:05:39;;;;;;;2.57;1.90;;;;;19.60;101229.00;;;;2079636;28;20271;-51
2022/09/22 05:06:40;;;;;;;3.47;2.30;;;;;19.60;101233.00;;;;2081782;28;20213;-52
2022/09/22 05:07:41;;;;;;;2.95;2.50;;;;;19.70;101236.00;;;;2080454;28;20232;-52
2022/09/22 05:08:42;;;;;;;2.60;2.30;;;;;19.60;101243.00;;;;2081623;28;20229;-51
2022/09/22 05:09:42;;;;;;;2.30;1.97;;;;;19.60;101235.00;;;;2081037;28;20483;-51
2022/09/22 05:10:42;;;;;;;3.60;2.20;;;;;19.60;101255.00;;;;2081743;28;20232;-52
2022/09/22 05:11:44;;;;;;;2.10;1.80;;;;;19.60;101241.00;;;;2081651;28;20225;-50
2022/09/22 05:12:44;;;;;;;2.60;2.10;;;;;19.60;101235.00;;;;2080763;28;20283;-52
2022/09/22 05:13:45;;;;;;;2.10;1.87;;;;;19.60;101247.00;;;;2081399;28;20310;-51